Time;durP1;ratioP1;P1;durP2;ratioP2;P2;SDS_P1;SDS_P2;PMS_P1;PMS_P2;Temp;Humidity;BMP_temperature;BMP_pressure;BME280_temperature;BME280_humidity;BME280_pressure;Samples;Min_cycle;Max_cycle;Signal;HPM_P1;HPM_P2
2022/01/15 00:01:10;;;;;;;8.77;5.10;;;;;;;8.66;46.13;95346.72;5009046;28;20655;-65
2022/01/15 00:03:37;;;;;;;7.60;4.75;;;;;;;8.43;46.18;95357.19;5004807;28;20254;-65
2022/01/15 00:06:04;;;;;;;7.60;4.63;;;;;;;8.87;45.81;95355.69;5008541;28;20225;-64
2022/01/15 00:08:31;;;;;;;7.60;4.57;;;;;;;9.02;45.37;95328.03;5002273;28;20214;-66
2022/01/15 00:10:57;;;;;;;7.50;4.78;;;;;;;9.03;45.29;95341.91;5005084;28;20283;-65
2022/01/15 00:13:28;;;;;;;7.30;4.90;;;;;;;8.45;46.74;95365.59;5011132;28;20198;-63
2022/01/15 00:16:07;;;;;;;11.00;5.40;;;;;;;8.39;47.43;95350.06;5011243;28;20233;-66
2022/01/15 00:18:43;;;;;;;8.52;5.07;;;;;;;8.20;47.05;95331.91;5010951;28;20190;-67
2022/01/15 00:21:12;;;;;;;9.02;5.28;;;;;;;8.23;47.81;95341.88;5011654;28;20629;-64
2022/01/15 00:23:39;;;;;;;8.45;4.53;;;;;;;8.03;47.75;95335.44;5010557;28;20201;-65
2022/01/15 00:26:07;;;;;;;7.97;4.43;;;;;;;8.24;48.00;95340.09;5010931;28;20210;-64
2022/01/15 00:28:33;;;;;;;26.33;11.50;;;;;;;8.14;47.78;95347.69;5010987;28;20704;-63
2022/01/15 00:31:00;;;;;;;7.85;4.53;;;;;;;8.00;48.31;95343.72;5026826;28;20214;-64
2022/01/15 00:33:30;;;;;;;7.10;4.40;;;;;;;8.16;48.38;95338.59;5010922;28;20657;-65
2022/01/15 00:35:58;;;;;;;11.80;4.80;;;;;;;8.36;48.06;95346.09;5010868;28;20232;-64
2022/01/15 00:38:25;;;;;;;5.63;3.55;;;;;;;8.08;48.77;95335.56;5010955;28;20810;-62
2022/01/15 00:40:53;;;;;;;7.38;4.88;;;;;;;8.61;47.54;95351.81;5010993;28;20201;-62
2022/01/15 00:43:20;;;;;;;9.18;3.50;;;;;;;8.00;48.80;95335.91;5010448;28;20217;-63
2022/01/15 00:45:47;;;;;;;6.45;4.65;;;;;;;8.98;46.76;95347.81;5010688;28;20256;-63
2022/01/15 00:48:14;;;;;;;7.95;4.90;;;;;;;8.71;47.50;95346.81;5010341;28;20202;-62
2022/01/15 00:50:42;;;;;;;7.13;4.35;;;;;;;8.46;47.71;95356.75;5010944;28;20201;-64
2022/01/15 00:53:08;;;;;;;7.93;5.03;;;;;;;8.75;47.16;95340.09;5010263;28;20186;-64
2022/01/15 00:55:35;;;;;;;8.77;5.00;;;;;;;8.75;46.82;95355.75;5010736;28;20202;-63
2022/01/15 00:58:02;;;;;;;8.73;5.22;;;;;;;8.61;47.21;95358.88;5025525;28;20304;-63
2022/01/15 01:00:29;;;;;;;7.68;4.50;;;;;;;8.30;48.60;95344.41;5010421;28;20198;-62
2022/01/15 01:02:56;;;;;;;7.38;5.00;;;;;;;8.40;47.79;95341.19;5009786;28;20201;-64
2022/01/15 01:05:24;;;;;;;9.43;6.07;;;;;;;8.60;48.14;95352.03;5010394;28;20217;-64
2022/01/15 01:07:51;;;;;;;9.82;5.68;;;;;;;7.99;49.16;95366.41;5010202;28;20205;-64
2022/01/15 01:21:20;;;;;;;10.05;5.68;;;;;;;8.86;47.16;95352.31;5010329;28;20205;-65
2022/01/15 01:23:48;;;;;;;8.23;4.75;;;;;;;8.08;49.45;95354.59;5010234;28;20522;-65
2022/01/15 01:31:53;;;;;;;8.43;4.88;;;;;;;7.63;48.87;95344.97;5010138;28;20213;-66
2022/01/15 01:34:23;;;;;;;11.10;5.30;;;;;;;8.05;48.62;95344.63;5009852;28;20225;-64
2022/01/15 01:39:25;;;;;;;9.02;4.75;;;;;;;8.20;48.38;95305.81;5009689;28;20206;-65
2022/01/15 01:45:18;;;;;;;8.45;4.90;;;;;;;7.28;50.50;95337.09;5008210;28;20221;-64
2022/01/15 01:47:45;;;;;;;10.23;6.10;;;;;;;7.38;49.87;95336.56;5008669;28;20204;-65
2022/01/15 01:50:16;;;;;;;16.58;7.55;;;;;;;7.36;49.92;95328.97;5009478;28;20267;-64
2022/01/15 01:52:48;;;;;;;7.45;4.53;;;;;;;7.11;50.76;95331.75;5009887;28;20214;-64
2022/01/15 01:55:16;;;;;;;9.77;5.10;;;;;;;7.19;50.66;95331.41;5009977;28;20205;-67
2022/01/15 01:57:43;;;;;;;7.90;4.43;;;;;;;7.54;49.41;95335.88;5009462;28;20194;-64
2022/01/15 02:00:15;;;;;;;7.97;4.78;;;;;;;7.85;48.83;95343.38;5009950;28;20186;-63
2022/01/15 02:02:49;;;;;;;7.45;4.95;;;;;;;7.31;49.28;95334.06;5009077;28;20263;-65
2022/01/15 02:05:16;;;;;;;8.45;5.60;;;;;;;7.47;49.52;95353.44;5009754;28;20257;-65
2022/01/15 02:07:44;;;;;;;10.60;5.28;;;;;;;7.52;49.06;95353.59;5009434;28;20949;-66
2022/01/15 02:10:18;;;;;;;8.98;5.57;;;;;;;7.17;49.13;95354.28;5009408;28;20230;-65
2022/01/15 02:12:47;;;;;;;8.00;5.50;;;;;;;7.19;49.75;95349.66;5008968;28;20600;-64
2022/01/15 02:15:18;;;;;;;8.15;5.15;;;;;;;8.09;47.44;95355.41;5008818;28;20252;-64
2022/01/15 02:17:48;;;;;;;7.90;5.18;;;;;;;8.30;46.71;95343.63;5009456;28;20757;-64
2022/01/15 02:25:41;;;;;;;250.98;107.03;;;;;;;8.19;47.45;95366.09;5009518;28;20708;-64
2022/01/15 02:28:08;;;;;;;19.65;9.43;;;;;;;7.99;47.12;95368.25;5008993;28;20183;-64
2022/01/15 02:30:35;;;;;;;10.98;6.53;;;;;;;8.11;47.14;95358.59;5009548;28;20229;-64
2022/01/15 02:33:05;;;;;;;9.60;5.55;;;;;;;8.17;47.80;95368.13;5008995;28;20289;-64
2022/01/15 02:35:32;;;;;;;7.97;4.82;;;;;;;7.99;47.77;95365.63;5009764;28;20204;-63
2022/01/15 02:38:08;;;;;;;9.80;5.80;;;;;;;8.03;47.70;95366.75;5009273;28;20625;-64
2022/01/15 02:40:36;;;;;;;7.38;5.15;;;;;;;8.00;48.01;95383.66;5009476;28;20221;-62
2022/01/15 02:43:08;;;;;;;8.65;5.00;;;;;;;7.71;48.56;95383.75;5008805;28;20209;-64
2022/01/15 02:45:36;;;;;;;10.45;5.55;;;;;;;7.75;48.05;95385.72;5008903;28;20212;-66
2022/01/15 02:48:10;;;;;;;8.93;5.40;;;;;;;8.26;46.74;95398.09;5009004;28;20205;-64
2022/01/15 02:50:38;;;;;;;9.73;5.68;;;;;;;8.33;46.55;95383.13;5008838;28;20723;-63
2022/01/15 02:53:07;;;;;;;8.98;5.85;;;;;;;8.14;47.17;95379.00;5008676;28;20552;-64
2022/01/15 02:55:34;;;;;;;11.20;5.63;;;;;;;7.95;46.61;95351.44;5008987;28;20194;-64
2022/01/15 02:58:01;;;;;;;10.13;5.80;;;;;;;8.56;45.49;95383.06;5008157;28;20212;-64
2022/01/15 03:00:28;;;;;;;9.07;5.78;;;;;;;8.56;45.46;95372.63;5009277;28;20203;-65
2022/01/15 03:02:55;;;;;;;10.52;6.00;;;;;;;8.43;45.63;95387.75;5008803;28;20293;-66
2022/01/15 03:05:22;;;;;;;9.73;5.90;;;;;;;8.42;45.96;95373.91;5008380;28;20225;-65
2022/01/15 03:07:49;;;;;;;9.52;5.80;;;;;;;8.08;46.31;95388.53;5008297;28;20204;-66
2022/01/15 03:10:15;;;;;;;10.93;5.28;;;;;;;7.69;47.19;95391.00;5009236;28;20315;-65
2022/01/15 03:12:42;;;;;;;10.30;5.93;;;;;;;8.31;45.73;95390.38;5008748;28;20202;-65
2022/01/15 03:15:10;;;;;;;14.32;6.40;;;;;;;8.23;46.48;95382.84;5008696;28;20230;-65
2022/01/15 03:17:38;;;;;;;10.57;6.38;;;;;;;7.87;46.20;95372.66;5008710;28;20240;-65
2022/01/15 03:20:05;;;;;;;10.20;6.13;;;;;;;7.83;46.26;95366.28;5008962;28;20208;-64
2022/01/15 03:22:32;;;;;;;9.75;6.15;;;;;;;7.99;46.19;95381.28;5009341;28;20268;-63
2022/01/15 03:24:59;;;;;;;11.75;6.75;;;;;;;7.81;45.71;95378.78;5008162;28;20193;-65
2022/01/15 03:27:26;;;;;;;11.43;6.32;;;;;;;7.77;45.86;95367.22;5012165;28;20209;-65
2022/01/15 03:29:53;;;;;;;11.55;5.57;;;;;;;7.61;46.51;95378.31;5011863;28;20236;-63
2022/01/15 03:32:21;;;;;;;10.13;6.22;;;;;;;7.68;45.90;95389.44;5012443;28;20221;-64
2022/01/15 03:34:49;;;;;;;13.52;7.78;;;;;;;7.83;45.49;95392.38;5011809;28;20649;-64
2022/01/15 03:37:16;;;;;;;14.00;7.47;;;;;;;7.44;45.97;95411.28;5012491;28;20264;-65
2022/01/15 03:39:44;;;;;;;13.85;8.13;;;;;;;7.48;46.23;95410.59;5012199;28;20178;-63
2022/01/15 03:42:12;;;;;;;11.48;7.10;;;;;;;7.16;46.05;95402.25;5012731;28;20569;-66
2022/01/15 03:44:45;;;;;;;12.05;7.72;;;;;;;7.81;45.26;95399.66;5011817;28;20201;-65
2022/01/15 03:47:13;;;;;;;14.27;8.07;;;;;;;7.51;46.15;95411.97;5012778;28;20202;-64
2022/01/15 03:49:42;;;;;;;24.00;10.50;;;;;;;7.14;46.71;95404.25;5012804;28;20218;-64
2022/01/15 03:52:10;;;;;;;13.73;8.57;;;;;;;7.79;45.40;95407.69;5013295;28;20722;-65
2022/01/15 03:54:38;;;;;;;11.13;6.40;;;;;;;7.63;45.43;95404.94;5011706;28;20186;-66
2022/01/15 03:57:06;;;;;;;14.98;7.90;;;;;;;7.51;46.22;95417.19;5012810;28;20277;-64
2022/01/15 03:59:33;;;;;;;11.57;6.55;;;;;;;7.48;45.94;95409.81;5012461;28;20198;-65
2022/01/15 04:02:00;;;;;;;13.45;7.43;;;;;;;7.74;45.23;95419.81;5012201;28;20233;-65
2022/01/15 04:04:28;;;;;;;12.82;5.95;;;;;;;7.45;46.24;95420.66;5011734;28;20194;-64
2022/01/15 04:06:55;;;;;;;11.65;5.85;;;;;;;7.61;46.12;95433.09;5011493;28;20276;-64
2022/01/15 04:09:21;;;;;;;11.93;7.80;;;;;;;7.62;46.25;95429.44;5011139;28;20220;-64
2022/01/15 04:11:48;;;;;;;12.30;6.45;;;;;;;7.44;46.71;95432.94;5012780;28;20218;-63
2022/01/15 04:14:15;;;;;;;13.70;7.95;;;;;;;7.74;46.60;95425.03;5011862;28;20190;-63
2022/01/15 04:16:42;;;;;;;10.93;6.47;;;;;;;7.76;46.01;95455.09;5012067;28;20266;-63
2022/01/15 04:19:09;;;;;;;11.30;5.88;;;;;;;7.77;45.65;95456.69;5012029;28;20212;-64
2022/01/15 04:21:37;;;;;;;13.10;7.22;;;;;;;7.68;46.49;95449.44;5012872;28;20759;-64
2022/01/15 04:24:04;;;;;;;11.88;7.10;;;;;;;7.80;45.80;95476.31;5012605;28;20697;-64
2022/01/15 04:26:31;;;;;;;15.07;8.32;;;;;;;7.53;46.41;95475.94;5012543;28;20225;-65
2022/01/15 04:29:03;;;;;;;55.30;26.10;;;;;;;7.77;46.45;95468.97;5012261;28;20726;-62
2022/01/15 04:31:46;;;;;;;15.10;8.80;;;;;;;7.64;46.51;95482.19;5011990;28;20289;-63
2022/01/15 04:34:15;;;;;;;15.75;6.95;;;;;;;7.19;47.22;95468.75;5011046;28;20205;-62
2022/01/15 04:36:43;;;;;;;16.88;8.95;;;;;;;7.27;47.57;95475.47;5010847;28;20205;-65
2022/01/15 04:39:12;;;;;;;14.73;9.13;;;;;;;7.18;47.46;95483.59;5010406;28;20602;-65
2022/01/15 04:41:39;;;;;;;15.85;8.77;;;;;;;7.33;47.25;95479.81;5010910;28;20214;-62
2022/01/15 04:44:07;;;;;;;15.27;9.35;;;;;;;7.50;46.54;95480.78;5011041;28;20205;-63
2022/01/15 04:46:35;;;;;;;16.02;9.30;;;;;;;7.12;47.66;95474.06;5011099;28;20209;-64
2022/01/15 04:49:03;;;;;;;15.07;9.63;;;;;;;7.33;47.10;95475.41;5010506;28;20637;-64
2022/01/15 04:51:31;;;;;;;17.52;9.75;;;;;;;7.06;47.39;95480.13;5011143;28;20205;-64
2022/01/15 04:53:59;;;;;;;17.27;10.60;;;;;;;7.59;46.59;95477.63;5010347;28;20205;-63
2022/01/15 04:56:26;;;;;;;16.50;10.30;;;;;;;7.60;47.09;95494.06;5011162;28;20625;-64
2022/01/15 04:58:53;;;;;;;16.33;9.43;;;;;;;7.15;47.44;95471.00;5010643;28;20645;-65
2022/01/15 05:01:19;;;;;;;16.90;9.30;;;;;;;7.13;47.27;95475.63;5011072;28;20190;-67
2022/01/15 05:03:46;;;;;;;17.70;10.15;;;;;;;7.11;48.19;95488.09;5010334;28;20657;-65
2022/01/15 05:06:14;;;;;;;18.75;10.77;;;;;;;7.51;48.21;95487.56;5010393;28;20206;-64
2022/01/15 05:08:44;;;;;;;17.02;10.30;;;;;;;7.44;47.97;95502.53;5010132;28;20193;-65
2022/01/15 05:11:15;;;;;;;17.90;10.68;;;;;;;7.69;47.27;95505.78;5011051;28;20530;-64
2022/01/15 05:13:42;;;;;;;17.88;10.52;;;;;;;7.27;48.56;95512.75;5010122;28;20210;-63
2022/01/15 05:16:09;;;;;;;17.67;10.63;;;;;;;7.35;48.21;95514.28;5010360;28;20247;-65
2022/01/15 05:18:36;;;;;;;17.23;10.60;;;;;;;7.73;47.90;95506.94;5010607;28;20339;-65
2022/01/15 05:21:03;;;;;;;14.65;10.23;;;;;;;7.44;48.43;95502.53;5011043;28;20677;-67
2022/01/15 05:23:30;;;;;;;19.80;10.65;;;;;;;6.95;49.00;95498.31;5010403;28;20196;-65
2022/01/15 05:25:57;;;;;;;18.65;11.45;;;;;;;7.35;48.31;95519.50;5010434;28;20201;-65
2022/01/15 05:28:24;;;;;;;16.38;9.48;;;;;;;6.85;49.52;95509.25;5010149;28;20309;-63
2022/01/15 05:30:51;;;;;;;17.13;10.93;;;;;;;6.40;51.49;95515.72;5010113;28;20241;-63
2022/01/15 05:33:18;;;;;;;19.42;11.05;;;;;;;6.59;50.46;95519.13;5009350;28;20198;-62
2022/01/15 05:35:45;;;;;;;30.30;15.32;;;;;;;6.69;50.51;95509.03;5010287;28;20248;-64
2022/01/15 05:38:12;;;;;;;20.55;12.23;;;;;;;6.67;50.57;95511.84;5010202;28;20614;-63
2022/01/15 05:40:39;;;;;;;19.92;11.63;;;;;;;6.52;50.43;95514.00;5009593;28;20204;-62
2022/01/15 05:43:07;;;;;;;19.45;11.52;;;;;;;6.69;50.75;95507.22;5009427;28;20293;-63
2022/01/15 05:45:34;;;;;;;18.73;11.55;;;;;;;6.76;50.61;95526.19;5009917;28;20201;-63
2022/01/15 05:48:00;;;;;;;18.17;11.20;;;;;;;6.71;49.99;95518.22;5009482;28;20206;-64
2022/01/15 05:50:27;;;;;;;17.13;10.77;;;;;;;6.49;50.80;95537.84;5009869;28;20317;-63
2022/01/15 05:52:55;;;;;;;18.48;10.80;;;;;;;6.64;50.76;95527.88;5024646;28;20260;-63
2022/01/15 05:55:23;;;;;;;20.02;11.90;;;;;;;7.02;49.80;95517.28;5009955;28;20198;-62
2022/01/15 05:57:50;;;;;;;20.92;12.20;;;;;;;6.71;50.48;95539.06;5009579;28;20261;-64
2022/01/15 06:00:17;;;;;;;22.13;12.93;;;;;;;6.68;50.67;95538.69;5010001;28;20654;-63
2022/01/15 06:02:44;;;;;;;17.40;11.07;;;;;;;6.90;50.62;95543.25;5009530;28;20682;-64
2022/01/15 06:05:11;;;;;;;19.08;12.25;;;;;;;7.01;49.92;95552.94;5009191;28;20210;-64
2022/01/15 06:07:38;;;;;;;21.92;13.95;;;;;;;6.61;51.02;95564.78;5009645;28;20209;-63
2022/01/15 06:10:05;;;;;;;28.60;15.10;;;;;;;6.76;50.09;95554.00;5009393;28;20723;-64
2022/01/15 06:12:41;;;;;;;21.05;11.43;;;;;;;6.83;50.66;95558.16;5009637;28;20201;-64
2022/01/15 06:15:09;;;;;;;23.50;12.85;;;;;;;7.22;49.89;95567.38;5009365;28;20307;-63
2022/01/15 06:17:37;;;;;;;23.02;13.27;;;;;;;6.92;50.23;95567.28;5009449;28;20908;-63
2022/01/15 06:20:05;;;;;;;21.90;13.10;;;;;;;7.11;49.74;95565.47;5009310;28;20213;-65
2022/01/15 06:22:32;;;;;;;20.08;11.50;;;;;;;6.56;50.58;95582.84;5009239;28;20762;-63
2022/01/15 06:24:59;;;;;;;17.98;11.77;;;;;;;6.74;50.67;95593.31;5009236;28;20236;-64
2022/01/15 06:27:27;;;;;;;18.30;11.52;;;;;;;6.49;51.13;95591.72;5009046;28;20241;-64
2022/01/15 06:29:56;;;;;;;23.00;12.80;;;;;;;6.87;51.12;95582.75;5008719;28;20723;-63
2022/01/15 06:32:28;;;;;;;21.50;12.88;;;;;;;6.38;51.67;95595.81;5009330;28;20711;-64
2022/01/15 06:34:55;;;;;;;19.35;12.57;;;;;;;6.42;51.65;95583.16;5008800;28;20248;-64
2022/01/15 06:37:23;;;;;;;21.17;12.38;;;;;;;6.66;51.33;95590.19;5002486;28;20748;-64
2022/01/15 06:39:49;;;;;;;20.02;12.68;;;;;;;6.05;52.81;95609.06;5001831;28;20293;-63
2022/01/15 06:42:16;;;;;;;19.65;12.63;;;;;;;6.55;51.36;95602.06;5005846;28;20201;-63
2022/01/15 06:44:43;;;;;;;35.90;16.48;;;;;;;6.42;52.18;95601.41;5006076;28;20276;-63
2022/01/15 06:47:11;;;;;;;22.98;13.95;;;;;;;6.61;50.89;95611.66;5002139;28;20903;-64
2022/01/15 06:49:38;;;;;;;22.35;12.95;;;;;;;6.44;52.43;95620.19;5005658;28;20685;-64
2022/01/15 06:52:05;;;;;;;22.50;13.80;;;;;;;6.51;51.21;95619.16;5004383;28;20208;-65
2022/01/15 06:54:32;;;;;;;22.55;13.10;;;;;;;6.70;51.83;95620.78;5006228;28;20240;-65
2022/01/15 06:56:59;;;;;;;21.45;13.75;;;;;;;6.43;51.44;95598.56;5003638;28;20297;-64
2022/01/15 06:59:26;;;;;;;20.33;12.70;;;;;;;6.73;51.04;95611.75;5003586;28;20253;-69
2022/01/15 07:01:53;;;;;;;20.00;12.88;;;;;;;6.73;51.19;95619.56;5000010;28;20204;-65
2022/01/15 07:04:20;;;;;;;23.17;14.57;;;;;;;6.82;50.99;95607.88;4994046;28;20202;-66
2022/01/15 07:06:47;;;;;;;22.77;12.80;;;;;;;6.75;50.51;95592.28;5004481;28;20228;-67
2022/01/15 07:09:14;;;;;;;20.52;13.38;;;;;;;7.49;49.68;95625.19;5003520;28;20205;-65
2022/01/15 07:11:41;;;;;;;22.70;12.90;;;;;;;7.37;49.87;95632.97;5001928;28;20245;-67
2022/01/15 07:14:08;;;;;;;22.58;13.88;;;;;;;7.44;50.03;95627.69;5004408;28;20194;-65
2022/01/15 07:16:35;;;;;;;30.35;15.50;;;;;;;7.07;50.44;95622.44;4998840;28;20233;-65
2022/01/15 07:19:02;;;;;;;24.75;13.73;;;;;;;7.13;50.25;95642.41;4992041;28;20249;-65
2022/01/15 07:21:29;;;;;;;21.42;13.45;;;;;;;7.12;50.24;95640.84;4992013;28;20277;-66
2022/01/15 07:23:57;;;;;;;24.63;14.05;;;;;;;6.85;50.71;95629.06;4992821;28;20211;-65
2022/01/15 07:26:24;;;;;;;22.13;13.23;;;;;;;7.30;50.30;95647.09;4993216;28;20253;-64
2022/01/15 07:28:51;;;;;;;25.27;14.30;;;;;;;6.94;50.30;95653.03;4992790;28;20202;-64
2022/01/15 07:31:18;;;;;;;21.08;13.73;;;;;;;7.55;49.99;95655.63;4993527;28;20234;-65
2022/01/15 07:33:45;;;;;;;24.48;13.77;;;;;;;7.73;48.96;95668.66;4991956;28;20198;-64
2022/01/15 07:36:13;;;;;;;20.83;13.10;;;;;;;7.47;49.09;95656.72;4992905;28;20237;-65
2022/01/15 07:38:40;;;;;;;24.65;14.07;;;;;;;7.00;50.64;95653.00;4992995;28;20289;-65
2022/01/15 07:41:12;;;;;;;20.73;13.65;;;;;;;7.37;49.56;95679.09;4992768;28;20208;-65
2022/01/15 07:43:40;;;;;;;25.55;13.88;;;;;;;7.15;50.08;95661.25;4990286;28;20217;-65
2022/01/15 07:46:07;;;;;;;22.98;13.65;;;;;;;7.39;49.84;95666.66;4992763;28;20198;-67
2022/01/15 07:48:34;;;;;;;21.75;13.80;;;;;;;7.82;48.42;95672.56;4992054;28;20224;-66
2022/01/15 07:51:01;;;;;;;399.67;162.32;;;;;;;7.47;48.66;95642.88;4992740;28;20835;-65
2022/01/15 07:53:28;;;;;;;113.10;40.22;;;;;;;8.15;47.79;95672.97;4991896;28;20377;-66
2022/01/15 07:55:55;;;;;;;29.25;17.08;;;;;;;7.94;48.09;95683.84;4992701;28;20209;-65
2022/01/15 07:58:22;;;;;;;28.92;15.38;;;;;;;7.84;48.07;95665.31;4992215;28;20729;-66
2022/01/15 08:00:49;;;;;;;23.20;14.60;;;;;;;7.99;48.51;95700.44;4992980;28;20653;-65
2022/01/15 08:03:17;;;;;;;23.52;14.57;;;;;;;7.94;48.25;95694.28;4992258;28;20203;-64
2022/01/15 08:05:44;;;;;;;22.45;14.45;;;;;;;7.68;48.36;95700.59;4991902;28;20273;-65
2022/01/15 08:08:10;;;;;;;22.63;13.90;;;;;;;7.20;49.78;95702.31;4992173;28;20187;-67
2022/01/15 08:10:37;;;;;;;22.25;14.75;;;;;;;7.47;49.35;95695.81;4992586;28;20218;-65
2022/01/15 08:13:04;;;;;;;24.27;14.93;;;;;;;8.02;48.67;95707.06;4994918;28;20229;-67
2022/01/15 08:15:33;;;;;;;23.25;14.38;;;;;;;7.76;48.98;95715.19;5009268;28;20241;-65
2022/01/15 08:18:00;;;;;;;23.35;14.35;;;;;;;7.65;48.52;95702.84;5005038;28;20206;-66
2022/01/15 08:20:27;;;;;;;22.55;14.43;;;;;;;7.60;48.69;95731.41;4992111;28;20261;-65
2022/01/15 08:22:54;;;;;;;24.48;14.05;;;;;;;7.34;51.51;95736.88;4991687;28;20190;-68
2022/01/15 08:25:24;;;;;;;28.65;17.23;;;;;;;7.63;51.77;95734.38;4992731;28;20198;-69
2022/01/15 08:27:52;;;;;;;25.45;14.73;;;;;;;7.60;49.31;95734.00;4992593;28;20274;-66
2022/01/15 08:30:21;;;;;;;25.58;14.98;;;;;;;8.07;48.24;95730.69;4992369;28;20218;-67
2022/01/15 08:32:49;;;;;;;24.08;15.32;;;;;;;8.29;47.78;95736.25;4991361;28;20190;-63
2022/01/15 08:35:16;;;;;;;22.98;13.98;;;;;;;8.27;46.56;95738.28;4992085;28;20254;-63
2022/01/15 08:37:43;;;;;;;22.98;14.50;;;;;;;8.15;47.77;95743.44;4991064;28;20607;-64
2022/01/15 08:40:13;;;;;;;22.13;14.52;;;;;;;8.13;46.98;95737.63;4991419;28;20194;-64
2022/01/15 08:42:41;;;;;;;24.08;14.68;;;;;;;8.22;46.85;95741.53;4991010;28;20276;-64
2022/01/15 08:45:10;;;;;;;24.90;14.68;;;;;;;8.54;46.55;95756.00;4991657;28;20195;-64
2022/01/15 08:47:37;;;;;;;23.23;13.95;;;;;;;7.97;47.82;95759.13;4991266;28;20732;-76
2022/01/15 08:50:06;;;;;;;48.45;31.52;;;;;;;8.18;47.30;95754.25;4991499;28;20234;-65
2022/01/15 08:52:34;;;;;;;49.28;31.67;;;;;;;8.59;46.06;95753.56;4992190;28;20607;-64
2022/01/15 08:55:03;;;;;;;24.77;15.02;;;;;;;8.70;45.54;95754.59;4998292;28;20202;-64
2022/01/15 08:57:30;;;;;;;23.50;15.13;;;;;;;8.58;45.65;95759.78;5010634;28;20182;-66
2022/01/15 08:59:56;;;;;;;26.10;14.68;;;;;;;8.72;45.29;95763.03;5010326;28;20193;-64
2022/01/15 09:02:23;;;;;;;24.58;15.68;;;;;;;8.74;45.91;95755.75;5010937;28;20209;-64
2022/01/15 09:04:51;;;;;;;50.70;26.98;;;;;;;8.52;45.73;95763.25;5010839;28;20294;-64
2022/01/15 09:07:18;;;;;;;42.60;20.40;;;;;;;8.13;46.80;95768.97;5010794;28;20198;-64
2022/01/15 09:09:45;;;;;;;24.73;14.60;;;;;;;8.19;46.50;95763.66;5010579;28;20206;-66
2022/01/15 09:12:11;;;;;;;22.65;15.95;;;;;;;8.33;45.98;95774.78;5011304;28;20619;-64
2022/01/15 09:14:39;;;;;;;25.70;15.70;;;;;;;8.26;46.59;95771.44;5010393;28;20237;-64
2022/01/15 09:17:09;;;;;;;26.10;15.50;;;;;;;8.88;44.98;95757.97;5010643;28;20201;-67
2022/01/15 09:19:35;;;;;;;23.42;15.07;;;;;;;10.08;42.86;95759.13;5010160;28;20256;-65
2022/01/15 09:22:06;;;;;;;22.45;14.30;;;;;;;10.55;42.08;95759.81;5010716;28;20271;-65
2022/01/15 09:24:33;;;;;;;41.88;27.08;;;;;;;10.22;41.64;95760.47;5010069;28;20240;-64
2022/01/15 09:30:11;;;;;;;87.85;59.53;;;;;;;10.68;41.51;95760.34;5010052;28;20206;-64
2022/01/15 09:32:35;;;;;;;23.40;13.75;;;;;;;8.55;44.24;95757.63;5010824;28;20209;-64
2022/01/15 09:35:03;;;;;;;19.92;13.77;;;;;;;8.44;44.69;95755.75;5010289;28;20236;-64
2022/01/15 09:37:30;;;;;;;33.30;16.40;;;;;;;8.53;44.94;95762.25;5010318;28;20221;-64
2022/01/15 09:39:58;;;;;;;20.75;12.90;;;;;;;7.87;46.06;95764.03;5009805;28;20264;-65
2022/01/15 09:42:25;;;;;;;18.98;12.82;;;;;;;8.39;45.38;95758.25;5011336;28;20287;-65
2022/01/15 09:44:53;;;;;;;22.73;13.00;;;;;;;8.66;43.77;95749.03;5010101;28;20715;-64
2022/01/15 09:47:22;;;;;;;19.88;12.93;;;;;;;8.11;44.79;95755.34;5009932;28;20699;-65
2022/01/15 09:49:51;;;;;;;24.25;12.63;;;;;;;8.60;44.61;95747.28;5009666;28;20221;-65
2022/01/15 09:52:17;;;;;;;20.90;12.60;;;;;;;8.43;44.06;95748.16;5010415;28;20210;-67
2022/01/15 09:54:45;;;;;;;31.80;18.98;;;;;;;8.22;45.14;95736.31;5010245;28;20230;-66
2022/01/15 09:57:12;;;;;;;62.70;38.35;;;;;;;8.29;45.13;95755.34;5009618;28;20209;-65
2022/01/15 09:59:39;;;;;;;21.67;15.07;;;;;;;8.59;44.51;95761.38;5009866;28;20528;-66
2022/01/15 10:02:06;;;;;;;22.17;13.20;;;;;;;8.65;43.44;95747.41;5010653;28;20189;-67
2022/01/15 10:04:35;;;;;;;20.40;11.27;;;;;;;7.77;45.15;95761.13;5009503;28;20597;-68
2022/01/15 10:07:12;;;;;;;22.33;13.25;;;;;;;8.24;44.42;95755.22;5010063;28;20206;-67
2022/01/15 10:09:41;;;;;;;22.73;12.38;;;;;;;8.17;44.72;95763.06;5009272;28;20197;-66
2022/01/15 10:12:10;;;;;;;48.63;25.42;;;;;;;7.72;46.00;95774.03;5009515;28;20275;-69
2022/01/15 10:14:40;;;;;;;19.40;11.77;;;;;;;7.88;45.44;95760.41;5024448;28;20621;-63
2022/01/15 10:17:27;;;;;;;19.73;11.55;;;;;;;7.22;46.53;95761.03;5009381;28;20246;-66
2022/01/15 10:19:58;;;;;;;20.75;10.82;;;;;;;7.66;46.25;95767.88;5009234;28;20201;-65
2022/01/15 10:22:28;;;;;;;49.33;29.77;;;;;;;7.72;45.88;95755.78;5009803;28;20240;-66
2022/01/15 10:25:07;;;;;;;30.33;17.65;;;;;;;7.97;45.23;95739.00;5009390;28;20618;-67
2022/01/15 10:27:39;;;;;;;22.35;11.45;;;;;;;8.21;44.58;95745.19;5009009;28;20205;-65
2022/01/15 10:30:21;;;;;;;19.48;9.00;;;;;;;7.71;46.74;95749.75;5009463;28;20229;-66
2022/01/15 10:32:53;;;;;;;20.25;11.63;;;;;;;8.34;44.60;95739.81;5009560;28;20193;-66
2022/01/15 10:35:22;;;;;;;20.27;11.77;;;;;;;7.99;44.66;95723.16;5009747;28;20209;-67
2022/01/15 10:37:58;;;;;;;20.55;11.02;;;;;;;7.74;44.68;95738.88;5011560;28;20224;-67
2022/01/15 10:40:28;;;;;;;17.55;10.93;;;;;;;7.30;45.64;95722.69;5010182;28;20251;-66
2022/01/15 10:42:58;;;;;;;22.35;10.57;;;;;;;7.64;45.49;95743.00;5009535;28;20193;-66
2022/01/15 10:45:34;;;;;;;19.55;10.90;;;;;;;7.48;45.48;95740.97;5009854;28;20682;-66
2022/01/15 10:48:07;;;;;;;23.40;12.27;;;;;;;7.66;45.30;95743.59;5009717;28;20317;-66
2022/01/15 10:50:37;;;;;;;26.13;13.13;;;;;;;7.98;45.01;95735.41;4989191;28;20214;-66
2022/01/15 10:53:10;;;;;;;22.67;13.45;;;;;;;8.39;44.66;95731.31;4988774;28;20572;-66
2022/01/15 10:55:39;;;;;;;21.98;13.38;;;;;;;8.56;44.72;95727.09;4989821;28;20226;-65
2022/01/15 10:58:11;;;;;;;25.35;12.35;;;;;;;9.43;42.88;95718.47;4989503;28;20202;-67
2022/01/15 11:00:41;;;;;;;18.73;11.98;;;;;;;9.81;41.95;95716.16;4990402;28;20604;-66
2022/01/15 11:03:10;;;;;;;21.35;11.38;;;;;;;8.82;43.55;95727.47;4989811;28;20174;-64
2022/01/15 11:05:40;;;;;;;19.65;11.07;;;;;;;8.84;43.02;95729.88;4989567;28;20724;-66
2022/01/15 11:08:07;;;;;;;13.63;8.00;;;;;;;8.81;42.61;95730.31;4989314;28;20203;-66
2022/01/15 11:10:57;;;;;;;16.95;10.38;;;;;;;9.46;41.92;95728.47;4990400;28;20226;-68
2022/01/15 11:13:30;;;;;;;14.15;8.73;;;;;;;9.09;41.81;95722.63;4989349;28;20202;-69
2022/01/15 11:16:02;;;;;;;17.80;10.45;;;;;;;9.17;42.06;95727.53;4989325;28;20230;-65
2022/01/15 11:18:32;;;;;;;69.18;42.55;;;;;;;8.63;42.82;95723.31;4989034;28;20218;-66
2022/01/15 11:21:05;;;;;;;17.17;10.52;;;;;;;8.24;42.99;95731.72;4989415;28;20257;-66
2022/01/15 11:23:34;;;;;;;20.73;10.70;;;;;;;8.54;42.45;95724.66;4988283;28;20214;-67
2022/01/15 11:26:05;;;;;;;16.15;9.65;;;;;;;8.48;42.94;95709.91;4987579;28;20206;-67
2022/01/15 11:28:34;;;;;;;216.38;77.03;;;;;;;8.95;42.55;95722.06;4984909;28;20203;-67
2022/01/15 11:31:05;;;;;;;21.83;12.38;;;;;;;9.03;41.75;95719.09;4990176;28;20223;-67
2022/01/15 11:33:34;;;;;;;16.10;10.60;;;;;;;9.09;41.37;95714.78;5001782;28;20571;-65
2022/01/15 11:36:03;;;;;;;16.38;10.38;;;;;;;9.37;41.24;95708.91;5007686;28;20317;-67
2022/01/15 11:38:44;;;;;;;19.00;9.88;;;;;;;9.30;41.45;95705.59;5007606;28;20290;-66
2022/01/15 11:41:26;;;;;;;16.48;10.50;;;;;;;9.91;40.49;95708.50;5008159;28;20296;-67
2022/01/15 11:43:57;;;;;;;15.57;10.40;;;;;;;10.44;39.13;95690.69;5007528;28;20961;-66
2022/01/15 11:46:39;;;;;;;20.53;10.90;;;;;;;10.57;38.72;95706.13;5008260;28;20229;-66
2022/01/15 11:49:29;;;;;;;19.00;10.73;;;;;;;9.23;41.09;95702.31;5011371;28;20445;-64
2022/01/15 11:51:57;;;;;;;18.25;11.10;;;;;;;9.29;40.51;95711.88;5011347;28;20216;-67
2022/01/15 11:54:24;;;;;;;15.27;9.82;;;;;;;9.13;40.81;95714.13;5011433;28;20205;-63
2022/01/15 11:56:51;;;;;;;20.10;10.10;;;;;;;9.21;40.51;95689.47;5011305;28;20224;-64
2022/01/15 11:59:27;;;;;;;16.57;10.53;;;;;;;9.15;40.96;95706.06;5011145;28;20202;-65
2022/01/15 12:01:56;;;;;;;16.58;10.77;;;;;;;9.56;39.95;95699.91;5010875;28;20547;-70
2022/01/15 12:04:37;;;;;;;16.88;10.85;;;;;;;9.01;41.19;95679.31;5010828;28;20644;-70
2022/01/15 12:07:06;;;;;;;19.00;12.20;;;;;;;9.09;40.77;95712.97;5011227;28;20213;-70